sensor_id;sensor_type;location;lat;lon;timestamp;pressure;altitude;pressure_sealevel;temperature;humidity
22657;BME280;11495;55.610;12.100;2022-10-16T00:01:45;100173.38;;;12.22;0.00
22657;BME280;11495;55.610;12.100;2022-10-16T00:04:10;100182.91;;;12.29;0.00
22657;BME280;11495;55.610;12.100;2022-10-16T00:06:36;100183.41;;;12.18;0.00
22657;BME280;11495;55.610;12.100;2022-10-16T00:09:01;100187.34;;;12.12;0.00
22657;BME280;11495;55.610;12.100;2022-10-16T00:11:28;100196.13;;;12.14;0.00
22657;BME280;11495;55.610;12.100;2022-10-16T00:13:58;100196.50;;;12.07;0.00
22657;BME280;11495;55.610;12.100;2022-10-16T00:16:24;100208.97;;;12.04;0.00
22657;BME280;11495;55.610;12.100;2022-10-16T00:18:49;100204.03;;;12.20;0.00
22657;BME280;11495;55.610;12.100;2022-10-16T00:21:16;100215.44;;;12.14;0.00
22657;BME280;11495;55.610;12.100;2022-10-16T00:23:41;100225.44;;;12.09;0.00
22657;BME280;11495;55.610;12.100;2022-10-16T00:26:08;100220.13;;;12.13;0.00
22657;BME280;11495;55.610;12.100;2022-10-16T00:28:34;100220.19;;;12.08;0.00
22657;BME280;11495;55.610;12.100;2022-10-16T00:31:02;100214.69;;;12.08;0.00
22657;BME280;11495;55.610;12.100;2022-10-16T00:33:28;100220.59;;;12.01;0.00
22657;BME280;11495;55.610;12.100;2022-10-16T00:35:53;100223.66;;;12.00;0.00
22657;BME280;11495;55.610;12.100;2022-10-16T00:38:18;100230.94;;;11.91;0.00
22657;BME280;11495;55.610;12.100;2022-10-16T00:40:44;100235.19;;;11.83;0.00
22657;BME280;11495;55.610;12.100;2022-10-16T00:43:12;100241.81;;;11.82;0.00
22657;BME280;11495;55.610;12.100;2022-10-16T00:45:38;100239.19;;;11.91;0.00
22657;BME280;11495;55.610;12.100;2022-10-16T00:48:03;100228.94;;;11.96;0.00
22657;BME280;11495;55.610;12.100;2022-10-16T00:52:53;100215.16;;;11.96;0.00
22657;BME280;11495;55.610;12.100;2022-10-16T00:55:19;100221.78;;;11.95;0.00
22657;BME280;11495;55.610;12.100;2022-10-16T00:57:45;100225.28;;;11.82;0.00
22657;BME280;11495;55.610;12.100;2022-10-16T01:00:12;100233.16;;;11.70;0.00
22657;BME280;11495;55.610;12.100;2022-10-16T01:02:38;100239.47;;;11.70;0.00
22657;BME280;11495;55.610;12.100;2022-10-16T01:05:03;100237.53;;;11.71;0.00
22657;BME280;11495;55.610;12.100;2022-10-16T01:13:01;100236.56;;;11.43;0.00
22657;BME280;11495;55.610;12.100;2022-10-16T01:15:30;100247.78;;;11.46;0.00
22657;BME280;11495;55.610;12.100;2022-10-16T01:28:10;100252.75;;;11.25;0.00
22657;BME280;11495;55.610;12.100;2022-10-16T01:30:37;100261.84;;;11.26;0.00
22657;BME280;11495;55.610;12.100;2022-10-16T01:33:04;100261.28;;;11.24;0.00
22657;BME280;11495;55.610;12.100;2022-10-16T01:35:37;100258.91;;;11.17;0.00
22657;BME280;11495;55.610;12.100;2022-10-16T01:38:06;100253.50;;;11.07;0.00
22657;BME280;11495;55.610;12.100;2022-10-16T01:40:32;100267.91;;;10.99;0.00
22657;BME280;11495;55.610;12.100;2022-10-16T01:43:00;100262.34;;;11.04;0.00
22657;BME280;11495;55.610;12.100;2022-10-16T01:45:28;100264.22;;;11.09;0.00
22657;BME280;11495;55.610;12.100;2022-10-16T01:47:54;100271.94;;;11.07;0.00
22657;BME280;11495;55.610;12.100;2022-10-16T01:50:20;100269.31;;;10.96;0.00
22657;BME280;11495;55.610;12.100;2022-10-16T01:52:47;100266.91;;;10.90;0.00
22657;BME280;11495;55.610;12.100;2022-10-16T01:55:14;100264.09;;;10.95;0.00
22657;BME280;11495;55.610;12.100;2022-10-16T01:57:41;100261.75;;;11.07;0.00
22657;BME280;11495;55.610;12.100;2022-10-16T02:00:09;100264.59;;;11.02;0.00
22657;BME280;11495;55.610;12.100;2022-10-16T02:02:35;100265.75;;;10.96;0.00
22657;BME280;11495;55.610;12.100;2022-10-16T02:05:04;100264.66;;;10.92;0.00
22657;BME280;11495;55.610;12.100;2022-10-16T02:07:30;100263.84;;;10.91;0.00
22657;BME280;11495;55.610;12.100;2022-10-16T02:09:55;100259.94;;;10.97;0.00
22657;BME280;11495;55.610;12.100;2022-10-16T02:12:23;100259.75;;;10.89;0.00
22657;BME280;11495;55.610;12.100;2022-10-16T02:14:50;100257.78;;;10.94;0.00
22657;BME280;11495;55.610;12.100;2022-10-16T02:17:17;100258.53;;;11.00;0.00
22657;BME280;11495;55.610;12.100;2022-10-16T02:19:42;100258.47;;;11.05;0.00
22657;BME280;11495;55.610;12.100;2022-10-16T02:22:11;100247.47;;;11.05;0.00
22657;BME280;11495;55.610;12.100;2022-10-16T02:24:39;100259.38;;;11.01;0.00
22657;BME280;11495;55.610;12.100;2022-10-16T02:29:34;100250.09;;;10.91;0.00
22657;BME280;11495;55.610;12.100;2022-10-16T02:32:04;100249.88;;;10.88;0.00
22657;BME280;11495;55.610;12.100;2022-10-16T02:34:31;100245.00;;;10.80;0.00
22657;BME280;11495;55.610;12.100;2022-10-16T02:36:58;100255.16;;;10.84;0.00
22657;BME280;11495;55.610;12.100;2022-10-16T02:39:24;100252.97;;;10.81;0.00
22657;BME280;11495;55.610;12.100;2022-10-16T02:41:51;100251.91;;;10.77;0.00
22657;BME280;11495;55.610;12.100;2022-10-16T02:44:16;100250.03;;;10.73;0.00
22657;BME280;11495;55.610;12.100;2022-10-16T02:46:41;100253.41;;;10.64;0.00
22657;BME280;11495;55.610;12.100;2022-10-16T02:49:07;100249.66;;;10.55;0.00
22657;BME280;11495;55.610;12.100;2022-10-16T02:51:32;100251.34;;;10.51;0.00
22657;BME280;11495;55.610;12.100;2022-10-16T02:53:57;100252.19;;;10.47;0.00
22657;BME280;11495;55.610;12.100;2022-10-16T02:56:23;100254.94;;;10.47;0.00
22657;BME280;11495;55.610;12.100;2022-10-16T02:58:48;100255.47;;;10.49;0.00
22657;BME280;11495;55.610;12.100;2022-10-16T03:01:14;100254.31;;;10.55;0.00
22657;BME280;11495;55.610;12.100;2022-10-16T03:03:41;100247.13;;;10.59;0.00
22657;BME280;11495;55.610;12.100;2022-10-16T03:06:06;100248.19;;;10.63;0.00
22657;BME280;11495;55.610;12.100;2022-10-16T03:08:32;100248.16;;;10.68;0.00
22657;BME280;11495;55.610;12.100;2022-10-16T03:10:57;100248.62;;;10.75;0.00
22657;BME280;11495;55.610;12.100;2022-10-16T03:13:22;100244.06;;;10.89;0.00
22657;BME280;11495;55.610;12.100;2022-10-16T03:15:48;100241.44;;;11.03;0.00
22657;BME280;11495;55.610;12.100;2022-10-16T03:18:13;100231.59;;;11.21;0.00
22657;BME280;11495;55.610;12.100;2022-10-16T03:20:39;100236.09;;;11.36;0.00
22657;BME280;11495;55.610;12.100;2022-10-16T03:23:04;100236.78;;;11.46;0.00
22657;BME280;11495;55.610;12.100;2022-10-16T03:25:29;100240.50;;;11.56;0.00
22657;BME280;11495;55.610;12.100;2022-10-16T03:27:55;100252.28;;;11.61;0.00
22657;BME280;11495;55.610;12.100;2022-10-16T03:30:20;100248.34;;;11.67;0.00
22657;BME280;11495;55.610;12.100;2022-10-16T03:32:45;100244.94;;;11.75;0.00
22657;BME280;11495;55.610;12.100;2022-10-16T03:35:11;100250.91;;;11.82;0.00
22657;BME280;11495;55.610;12.100;2022-10-16T03:37:36;100242.25;;;11.89;0.00
22657;BME280;11495;55.610;12.100;2022-10-16T03:40:02;100247.41;;;11.96;0.00
22657;BME280;11495;55.610;12.100;2022-10-16T03:42:28;100248.47;;;12.00;0.00
22657;BME280;11495;55.610;12.100;2022-10-16T03:44:53;100235.50;;;12.00;0.00
22657;BME280;11495;55.610;12.100;2022-10-16T03:47:19;100246.72;;;12.04;0.00
22657;BME280;11495;55.610;12.100;2022-10-16T03:49:46;100257.44;;;12.05;0.00
22657;BME280;11495;55.610;12.100;2022-10-16T03:52:12;100256.03;;;12.08;0.00
22657;BME280;11495;55.610;12.100;2022-10-16T03:54:37;100244.72;;;12.09;0.00
22657;BME280;11495;55.610;12.100;2022-10-16T03:57:02;100248.00;;;12.12;0.00
22657;BME280;11495;55.610;12.100;2022-10-16T03:59:28;100237.34;;;12.05;0.00
22657;BME280;11495;55.610;12.100;2022-10-16T04:01:53;100232.59;;;11.92;0.00
22657;BME280;11495;55.610;12.100;2022-10-16T04:04:18;100234.94;;;11.79;0.00
22657;BME280;11495;55.610;12.100;2022-10-16T04:06:44;100240.31;;;11.71;0.00
22657;BME280;11495;55.610;12.100;2022-10-16T04:09:09;100239.34;;;11.62;0.00
22657;BME280;11495;55.610;12.100;2022-10-16T04:11:34;100232.91;;;11.66;0.00
22657;BME280;11495;55.610;12.100;2022-10-16T04:13:59;100232.03;;;11.71;0.00
22657;BME280;11495;55.610;12.100;2022-10-16T04:16:25;100238.53;;;11.80;0.00
22657;BME280;11495;55.610;12.100;2022-10-16T04:18:50;100244.81;;;11.86;0.00
22657;BME280;11495;55.610;12.100;2022-10-16T04:21:15;100244.44;;;11.92;0.00
22657;BME280;11495;55.610;12.100;2022-10-16T04:23:41;100247.91;;;11.98;0.00
22657;BME280;11495;55.610;12.100;2022-10-16T04:26:07;100234.59;;;12.05;0.00
22657;BME280;11495;55.610;12.100;2022-10-16T04:28:32;100242.53;;;12.06;0.00
22657;BME280;11495;55.610;12.100;2022-10-16T04:30:57;100230.41;;;12.07;0.00
22657;BME280;11495;55.610;12.100;2022-10-16T04:33:22;100229.31;;;12.08;0.00
22657;BME280;11495;55.610;12.100;2022-10-16T04:35:48;100226.75;;;12.12;0.00
22657;BME280;11495;55.610;12.100;2022-10-16T04:38:13;100236.91;;;12.17;0.00
22657;BME280;11495;55.610;12.100;2022-10-16T04:40:38;100236.03;;;12.16;0.00
22657;BME280;11495;55.610;12.100;2022-10-16T04:43:04;100234.13;;;12.17;0.00
22657;BME280;11495;55.610;12.100;2022-10-16T04:45:29;100223.94;;;12.17;0.00
22657;BME280;11495;55.610;12.100;2022-10-16T04:47:58;100221.69;;;12.19;0.00
22657;BME280;11495;55.610;12.100;2022-10-16T04:50:23;100214.75;;;12.22;0.00
22657;BME280;11495;55.610;12.100;2022-10-16T04:52:48;100223.00;;;12.22;0.00
22657;BME280;11495;55.610;12.100;2022-10-16T04:55:14;100226.28;;;12.24;0.00
22657;BME280;11495;55.610;12.100;2022-10-16T04:57:40;100223.53;;;12.24;0.00
22657;BME280;11495;55.610;12.100;2022-10-16T05:00:05;100213.31;;;12.24;0.00
22657;BME280;11495;55.610;12.100;2022-10-16T05:02:30;100227.94;;;12.25;0.00
22657;BME280;11495;55.610;12.100;2022-10-16T05:04:56;100222.94;;;12.27;0.00
22657;BME280;11495;55.610;12.100;2022-10-16T05:07:21;100221.81;;;12.28;0.00
22657;BME280;11495;55.610;12.100;2022-10-16T05:09:46;100236.41;;;12.28;0.00
22657;BME280;11495;55.610;12.100;2022-10-16T05:12:11;100227.03;;;12.29;0.00
22657;BME280;11495;55.610;12.100;2022-10-16T05:14:37;100227.03;;;12.29;0.00
22657;BME280;11495;55.610;12.100;2022-10-16T05:17:02;100226.19;;;12.29;0.00
22657;BME280;11495;55.610;12.100;2022-10-16T05:19:27;100227.84;;;12.30;0.00
22657;BME280;11495;55.610;12.100;2022-10-16T05:21:53;100228.34;;;12.32;0.00
22657;BME280;11495;55.610;12.100;2022-10-16T05:24:18;100230.28;;;12.31;0.00
22657;BME280;11495;55.610;12.100;2022-10-16T05:26:43;100224.50;;;12.33;0.00
22657;BME280;11495;55.610;12.100;2022-10-16T05:29:08;100227.75;;;12.35;0.00
22657;BME280;11495;55.610;12.100;2022-10-16T05:31:34;100228.28;;;12.37;0.00
22657;BME280;11495;55.610;12.100;2022-10-16T05:33:59;100236.03;;;12.35;0.00
22657;BME280;11495;55.610;12.100;2022-10-16T05:36:25;100242.06;;;12.37;0.00
22657;BME280;11495;55.610;12.100;2022-10-16T05:38:50;100240.44;;;12.36;0.00
22657;BME280;11495;55.610;12.100;2022-10-16T05:41:15;100239.31;;;12.37;0.00
22657;BME280;11495;55.610;12.100;2022-10-16T05:43:46;100242.06;;;12.37;0.00
22657;BME280;11495;55.610;12.100;2022-10-16T05:46:11;100232.16;;;12.36;0.00
22657;BME280;11495;55.610;12.100;2022-10-16T05:48:37;100239.31;;;12.37;0.00
22657;BME280;11495;55.610;12.100;2022-10-16T05:51:03;100234.69;;;12.32;0.00
22657;BME280;11495;55.610;12.100;2022-10-16T05:53:30;100249.81;;;12.35;0.00
22657;BME280;11495;55.610;12.100;2022-10-16T05:58:29;100246.25;;;12.34;0.00
22657;BME280;11495;55.610;12.100;2022-10-16T06:00:59;100257.28;;;12.34;0.00
22657;BME280;11495;55.610;12.100;2022-10-16T06:03:24;100258.97;;;12.30;0.00
22657;BME280;11495;55.610;12.100;2022-10-16T06:05:50;100258.28;;;12.25;0.00
22657;BME280;11495;55.610;12.100;2022-10-16T06:08:16;100252.53;;;12.21;0.00
22657;BME280;11495;55.610;12.100;2022-10-16T06:10:41;100261.59;;;12.22;0.00
22657;BME280;11495;55.610;12.100;2022-10-16T06:13:07;100268.75;;;12.23;0.00
22657;BME280;11495;55.610;12.100;2022-10-16T06:15:32;100280.31;;;12.25;0.00
22657;BME280;11495;55.610;12.100;2022-10-16T06:17:57;100275.31;;;12.27;0.00
22657;BME280;11495;55.610;12.100;2022-10-16T06:20:23;100294.00;;;12.30;0.00
22657;BME280;11495;55.610;12.100;2022-10-16T06:22:48;100294.09;;;12.25;0.00
22657;BME280;11495;55.610;12.100;2022-10-16T06:25:13;100289.16;;;12.22;0.00
22657;BME280;11495;55.610;12.100;2022-10-16T06:27:39;100304.59;;;12.23;0.00
22657;BME280;11495;55.610;12.100;2022-10-16T06:30:05;100301.94;;;12.18;0.00
22657;BME280;11495;55.610;12.100;2022-10-16T06:32:30;100314.59;;;12.19;0.00
22657;BME280;11495;55.610;12.100;2022-10-16T06:34:56;100308.63;;;12.12;0.00
22657;BME280;11495;55.610;12.100;2022-10-16T06:37:21;100327.31;;;12.15;0.00
22657;BME280;11495;55.610;12.100;2022-10-16T06:39:47;100327.78;;;12.03;0.00
22657;BME280;11495;55.610;12.100;2022-10-16T06:42:12;100336.09;;;11.98;0.00
22657;BME280;11495;55.610;12.100;2022-10-16T06:44:37;100333.66;;;11.96;0.00
22657;BME280;11495;55.610;12.100;2022-10-16T06:47:03;100337.06;;;11.88;0.00
22657;BME280;11495;55.610;12.100;2022-10-16T06:49:28;100345.63;;;11.87;0.00
22657;BME280;11495;55.610;12.100;2022-10-16T06:51:54;100353.66;;;11.83;0.00
22657;BME280;11495;55.610;12.100;2022-10-16T06:54:19;100361.66;;;11.79;0.00
22657;BME280;11495;55.610;12.100;2022-10-16T06:56:44;100377.38;;;11.79;0.00
22657;BME280;11495;55.610;12.100;2022-10-16T06:59:10;100379.87;;;11.80;0.00
22657;BME280;11495;55.610;12.100;2022-10-16T07:01:35;100378.75;;;11.81;0.00
22657;BME280;11495;55.610;12.100;2022-10-16T07:04:01;100386.44;;;11.85;0.00
22657;BME280;11495;55.610;12.100;2022-10-16T07:06:27;100406.25;;;11.87;0.00
22657;BME280;11495;55.610;12.100;2022-10-16T07:08:52;100397.09;;;11.91;0.00
22657;BME280;11495;55.610;12.100;2022-10-16T07:11:19;100398.38;;;11.99;0.00
22657;BME280;11495;55.610;12.100;2022-10-16T07:13:47;100407.34;;;12.09;0.00
22657;BME280;11495;55.610;12.100;2022-10-16T07:16:18;100417.09;;;12.21;0.00
22657;BME280;11495;55.610;12.100;2022-10-16T07:18:43;100415.94;;;12.27;0.00
22657;BME280;11495;55.610;12.100;2022-10-16T07:21:14;100427.63;;;12.37;0.00
22657;BME280;11495;55.610;12.100;2022-10-16T07:23:40;100429.38;;;12.52;0.00
22657;BME280;11495;55.610;12.100;2022-10-16T07:26:06;100431.09;;;12.67;0.00
22657;BME280;11495;55.610;12.100;2022-10-16T07:28:32;100422.94;;;12.76;0.00
22657;BME280;11495;55.610;12.100;2022-10-16T07:31:01;100422.16;;;12.89;0.00
22657;BME280;11495;55.610;12.100;2022-10-16T07:33:27;100422.44;;;13.06;0.00
22657;BME280;11495;55.610;12.100;2022-10-16T07:35:52;100437.91;;;13.40;0.00
22657;BME280;11495;55.610;12.100;2022-10-16T07:38:19;100415.03;;;13.67;0.00
22657;BME280;11495;55.610;12.100;2022-10-16T07:40:45;100426.59;;;13.83;0.00
22657;BME280;11495;55.610;12.100;2022-10-16T07:43:11;100445.03;;;14.01;0.00
22657;BME280;11495;55.610;12.100;2022-10-16T07:45:37;100453.91;;;13.98;0.00
22657;BME280;11495;55.610;12.100;2022-10-16T07:48:02;100466.84;;;14.02;0.00
22657;BME280;11495;55.610;12.100;2022-10-16T07:50:27;100476.69;;;14.09;0.00
22657;BME280;11495;55.610;12.100;2022-10-16T07:52:53;100486.62;;;14.23;0.00
22657;BME280;11495;55.610;12.100;2022-10-16T07:55:18;100489.56;;;14.41;0.00
22657;BME280;11495;55.610;12.100;2022-10-16T07:57:44;100497.22;;;14.71;0.00
22657;BME280;11495;55.610;12.100;2022-10-16T08:00:09;100501.50;;;14.77;0.00
22657;BME280;11495;55.610;12.100;2022-10-16T08:02:41;100514.34;;;15.09;0.00
22657;BME280;11495;55.610;12.100;2022-10-16T08:05:07;100534.19;;;15.25;0.00
22657;BME280;11495;55.610;12.100;2022-10-16T08:07:32;100533.84;;;15.04;0.00
22657;BME280;11495;55.610;12.100;2022-10-16T08:09:57;100551.66;;;14.89;0.00
22657;BME280;11495;55.610;12.100;2022-10-16T08:12:24;100549.78;;;14.85;0.00
22657;BME280;11495;55.610;12.100;2022-10-16T08:14:49;100567.97;;;14.77;0.00
22657;BME280;11495;55.610;12.100;2022-10-16T08:17:14;100575.34;;;14.82;0.00
22657;BME280;11495;55.610;12.100;2022-10-16T08:19:43;100589.87;;;14.87;0.00
22657;BME280;11495;55.610;12.100;2022-10-16T08:22:08;100606.63;;;14.82;0.00
22657;BME280;11495;55.610;12.100;2022-10-16T08:24:34;100625.19;;;14.68;0.00
22657;BME280;11495;55.610;12.100;2022-10-16T08:27:00;100643.72;;;14.54;0.00
22657;BME280;11495;55.610;12.100;2022-10-16T08:29:25;100658.69;;;14.53;0.00
22657;BME280;11495;55.610;12.100;2022-10-16T08:31:50;100672.94;;;14.87;0.00
22657;BME280;11495;55.610;12.100;2022-10-16T08:34:16;100683.31;;;15.23;0.00
22657;BME280;11495;55.610;12.100;2022-10-16T08:36:41;100711.59;;;15.20;0.00
22657;BME280;11495;55.610;12.100;2022-10-16T08:39:06;100723.38;;;15.53;0.00
22657;BME280;11495;55.610;12.100;2022-10-16T08:41:53;100754.88;;;15.71;0.00
22657;BME280;11495;55.610;12.100;2022-10-16T08:44:34;100782.78;;;15.88;0.00
22657;BME280;11495;55.610;12.100;2022-10-16T08:49:29;100874.44;;;16.33;0.00
22657;BME280;11495;55.610;12.100;2022-10-16T08:51:55;100901.63;;;16.45;0.00
22657;BME280;11495;55.610;12.100;2022-10-16T08:54:32;100933.41;;;16.52;0.00
22657;BME280;11495;55.610;12.100;2022-10-16T08:57:16;100955.84;;;16.42;0.00
22657;BME280;11495;55.610;12.100;2022-10-16T08:59:42;100993.66;;;16.38;0.00
22657;BME280;11495;55.610;12.100;2022-10-16T09:02:22;100990.75;;;16.71;0.00
22657;BME280;11495;55.610;12.100;2022-10-16T09:07:19;101021.72;;;16.78;0.00
22657;BME280;11495;55.610;12.100;2022-10-16T09:12:36;101063.47;;;16.45;0.00
22657;BME280;11495;55.610;12.100;2022-10-16T09:15:14;101063.69;;;16.21;0.00
22657;BME280;11495;55.610;12.100;2022-10-16T09:17:49;101043.13;;;16.36;0.00
22657;BME280;11495;55.610;12.100;2022-10-16T09:20:19;101030.59;;;16.39;0.00
22657;BME280;11495;55.610;12.100;2022-10-16T09:22:45;101024.09;;;16.71;0.00
22657;BME280;11495;55.610;12.100;2022-10-16T09:25:14;101047.66;;;16.73;0.00
22657;BME280;11495;55.610;12.100;2022-10-16T09:27:40;101050.13;;;16.89;0.00
22657;BME280;11495;55.610;12.100;2022-10-16T09:30:11;101064.09;;;16.83;0.00
22657;BME280;11495;55.610;12.100;2022-10-16T09:32:37;101069.03;;;16.87;0.00
22657;BME280;11495;55.610;12.100;2022-10-16T09:35:03;101071.31;;;16.71;0.00
22657;BME280;11495;55.610;12.100;2022-10-16T09:37:28;101074.69;;;16.54;0.00
22657;BME280;11495;55.610;12.100;2022-10-16T09:39:54;101052.56;;;16.63;0.00
22657;BME280;11495;55.610;12.100;2022-10-16T09:42:23;101061.91;;;16.94;0.00
22657;BME280;11495;55.610;12.100;2022-10-16T09:44:52;101058.19;;;17.35;0.00
22657;BME280;11495;55.610;12.100;2022-10-16T09:47:23;101086.88;;;17.22;0.00
22657;BME280;11495;55.610;12.100;2022-10-16T09:49:59;101093.25;;;17.22;0.00
22657;BME280;11495;55.610;12.100;2022-10-16T09:52:27;101108.66;;;17.28;0.00
22657;BME280;11495;55.610;12.100;2022-10-16T09:54:54;101113.75;;;17.49;0.00
22657;BME280;11495;55.610;12.100;2022-10-16T09:57:19;101129.41;;;17.81;0.00
22657;BME280;11495;55.610;12.100;2022-10-16T09:59:46;101129.19;;;18.00;0.00
22657;BME280;11495;55.610;12.100;2022-10-16T10:02:11;101162.25;;;18.23;0.00
22657;BME280;11495;55.610;12.100;2022-10-16T10:04:40;101166.41;;;18.35;0.00
22657;BME280;11495;55.610;12.100;2022-10-16T10:07:06;101189.00;;;18.33;0.00
22657;BME280;11495;55.610;12.100;2022-10-16T10:09:42;101221.16;;;17.72;0.00
22657;BME280;11495;55.610;12.100;2022-10-16T10:12:19;101202.44;;;17.86;0.00
22657;BME280;11495;55.610;12.100;2022-10-16T10:14:49;101223.84;;;17.63;0.00
22657;BME280;11495;55.610;12.100;2022-10-16T10:17:19;101224.50;;;17.69;0.00
22657;BME280;11495;55.610;12.100;2022-10-16T10:27:35;101290.19;;;18.29;0.00
22657;BME280;11495;55.610;12.100;2022-10-16T10:35:15;101390.03;;;17.85;0.00
22657;BME280;11495;55.610;12.100;2022-10-16T10:37:48;101420.09;;;17.69;0.00
22657;BME280;11495;55.610;12.100;2022-10-16T10:42:59;101438.56;;;17.93;0.00
22657;BME280;11495;55.610;12.100;2022-10-16T10:45:42;101454.84;;;17.86;0.00
22657;BME280;11495;55.610;12.100;2022-10-16T10:48:17;101466.59;;;17.83;0.00
22657;BME280;11495;55.610;12.100;2022-10-16T10:50:47;101477.22;;;17.81;0.00
22657;BME280;11495;55.610;12.100;2022-10-16T11:01:16;101496.72;;;17.81;0.00
22657;BME280;11495;55.610;12.100;2022-10-16T11:03:54;101525.97;;;17.78;0.00
22657;BME280;11495;55.610;12.100;2022-10-16T11:09:13;101560.09;;;17.84;0.00
22657;BME280;11495;55.610;12.100;2022-10-16T11:11:42;101532.88;;;17.81;0.00
22657;BME280;11495;55.610;12.100;2022-10-16T11:16:43;101525.06;;;17.96;0.00
22657;BME280;11495;55.610;12.100;2022-10-16T11:19:26;101555.78;;;17.59;0.00
22657;BME280;11495;55.610;12.100;2022-10-16T11:21:59;101535.59;;;17.34;0.00
22657;BME280;11495;55.610;12.100;2022-10-16T11:24:47;101526.31;;;17.58;0.00
22657;BME280;11495;55.610;12.100;2022-10-16T11:27:12;101513.84;;;17.69;0.00
22657;BME280;11495;55.610;12.100;2022-10-16T11:29:43;101498.44;;;17.44;0.00
22657;BME280;11495;55.610;12.100;2022-10-16T11:32:24;101495.53;;;17.03;0.00
22657;BME280;11495;55.610;12.100;2022-10-16T11:34:52;101482.66;;;16.74;0.00
22657;BME280;11495;55.610;12.100;2022-10-16T11:37:21;101446.87;;;17.05;0.00
22657;BME280;11495;55.610;12.100;2022-10-16T11:39:49;101458.38;;;17.31;0.00
22657;BME280;11495;55.610;12.100;2022-10-16T11:44:54;101443.81;;;18.08;0.00
22657;BME280;11495;55.610;12.100;2022-10-16T11:47:24;101469.19;;;17.93;0.00
22657;BME280;11495;55.610;12.100;2022-10-16T11:49:52;101470.75;;;17.53;0.00
22657;BME280;11495;55.610;12.100;2022-10-16T11:54:47;101496.09;;;17.19;0.00
22657;BME280;11495;55.610;12.100;2022-10-16T11:57:20;101491.56;;;17.41;0.00
22657;BME280;11495;55.610;12.100;2022-10-16T11:59:48;101483.53;;;17.54;0.00
22657;BME280;11495;55.610;12.100;2022-10-16T12:04:52;101508.78;;;17.57;0.00
22657;BME280;11495;55.610;12.100;2022-10-16T12:07:27;101516.34;;;17.71;0.00
22657;BME280;11495;55.610;12.100;2022-10-16T12:09:57;101523.72;;;17.61;0.00
22657;BME280;11495;55.610;12.100;2022-10-16T12:15:46;101520.38;;;17.46;0.00
22657;BME280;11495;55.610;12.100;2022-10-16T12:17:45;101520.94;;;17.61;0.00
22657;BME280;11495;55.610;12.100;2022-10-16T12:22:36;101542.00;;;17.67;0.00
22657;BME280;11495;55.610;12.100;2022-10-16T12:25:17;101572.94;;;17.47;0.00
22657;BME280;11495;55.610;12.100;2022-10-16T12:27:44;101571.06;;;17.42;0.00
22657;BME280;11495;55.610;12.100;2022-10-16T12:30:14;101569.06;;;17.62;0.00
22657;BME280;11495;55.610;12.100;2022-10-16T12:32:45;101570.00;;;17.57;0.00
22657;BME280;11495;55.610;12.100;2022-10-16T12:35:22;101586.28;;;17.83;0.00
22657;BME280;11495;55.610;12.100;2022-10-16T12:37:48;101617.69;;;17.32;0.00
22657;BME280;11495;55.610;12.100;2022-10-16T12:40:16;101632.47;;;17.08;0.00
22657;BME280;11495;55.610;12.100;2022-10-16T12:42:48;101593.16;;;16.96;0.00
22657;BME280;11495;55.610;12.100;2022-10-16T12:45:27;101590.06;;;16.79;0.00
22657;BME280;11495;55.610;12.100;2022-10-16T12:47:54;101574.91;;;16.71;0.00
22657;BME280;11495;55.610;12.100;2022-10-16T12:50:23;101577.78;;;16.61;0.00
22657;BME280;11495;55.610;12.100;2022-10-16T12:52:49;101569.00;;;16.54;0.00
22657;BME280;11495;55.610;12.100;2022-10-16T12:55:18;101573.31;;;16.41;0.00
22657;BME280;11495;55.610;12.100;2022-10-16T12:58:07;101570.72;;;16.26;0.00
22657;BME280;11495;55.610;12.100;2022-10-16T13:05:53;101549.63;;;16.49;0.00
22657;BME280;11495;55.610;12.100;2022-10-16T13:16:24;101519.88;;;16.31;0.00
22657;BME280;11495;55.610;12.100;2022-10-16T13:18:45;101531.66;;;16.22;0.00
22657;BME280;11495;55.610;12.100;2022-10-16T13:21:18;101542.34;;;16.05;0.00
22657;BME280;11495;55.610;12.100;2022-10-16T13:23:59;101519.91;;;16.07;0.00
22657;BME280;11495;55.610;12.100;2022-10-16T13:26:39;101524.78;;;16.15;0.00
22657;BME280;11495;55.610;12.100;2022-10-16T13:29:09;101531.66;;;16.22;0.00
22657;BME280;11495;55.610;12.100;2022-10-16T13:31:36;101536.47;;;16.12;0.00
22657;BME280;11495;55.610;12.100;2022-10-16T13:34:02;101553.25;;;16.01;0.00
22657;BME280;11495;55.610;12.100;2022-10-16T13:36:50;101554.28;;;15.82;0.00
22657;BME280;11495;55.610;12.100;2022-10-16T13:41:42;101541.53;;;15.46;0.00
22657;BME280;11495;55.610;12.100;2022-10-16T13:44:11;101532.88;;;15.53;0.00
22657;BME280;11495;55.610;12.100;2022-10-16T13:46:38;101514.56;;;15.57;0.00
22657;BME280;11495;55.610;12.100;2022-10-16T13:49:04;101504.31;;;15.53;0.00
22657;BME280;11495;55.610;12.100;2022-10-16T13:51:30;101523.09;;;15.66;0.00
22657;BME280;11495;55.610;12.100;2022-10-16T13:53:56;101526.41;;;15.68;0.00
22657;BME280;11495;55.610;12.100;2022-10-16T13:56:22;101535.31;;;15.65;0.00
22657;BME280;11495;55.610;12.100;2022-10-16T13:59:03;101527.75;;;15.70;0.00
22657;BME280;11495;55.610;12.100;2022-10-16T14:01:33;101539.66;;;15.71;0.00
22657;BME280;11495;55.610;12.100;2022-10-16T14:04:06;101545.28;;;15.66;0.00
22657;BME280;11495;55.610;12.100;2022-10-16T14:06:32;101558.84;;;15.67;0.00
22657;BME280;11495;55.610;12.100;2022-10-16T14:08:59;101562.53;;;15.58;0.00
22657;BME280;11495;55.610;12.100;2022-10-16T14:11:26;101551.41;;;15.63;0.00
22657;BME280;11495;55.610;12.100;2022-10-16T14:13:51;101563.88;;;15.60;0.00
22657;BME280;11495;55.610;12.100;2022-10-16T14:16:24;101566.69;;;15.55;0.00
22657;BME280;11495;55.610;12.100;2022-10-16T14:18:55;101584.72;;;15.58;0.00
22657;BME280;11495;55.610;12.100;2022-10-16T14:21:22;101597.47;;;15.54;0.00